createdAt,value
2018-10-07T00:00:53.098Z,44.10
2018-10-07T00:03:21.786Z,43.20
2018-10-07T00:05:51.059Z,40.80
2018-10-07T00:08:19.454Z,39.40
2018-10-07T00:10:48.342Z,40.20
2018-10-07T00:13:17.304Z,39.60
2018-10-07T00:15:46.289Z,47.90
2018-10-07T00:18:14.658Z,57.20
2018-10-07T00:20:43.111Z,60.90
2018-10-07T00:23:12.511Z,61.30
2018-10-07T00:25:42.808Z,62.70
2018-10-07T00:28:11.226Z,68.70
2018-10-07T00:30:41.791Z,77.30
2018-10-07T00:33:10.226Z,69.00
2018-10-07T00:35:38.595Z,70.50
2018-10-07T00:38:07.308Z,67.90
2018-10-07T00:40:35.747Z,63.50
2018-10-07T00:43:04.443Z,58.40
2018-10-07T00:45:32.803Z,56.90
2018-10-07T00:48:01.266Z,56.20
2018-10-07T00:50:29.860Z,58.40
2018-10-07T00:52:58.490Z,59.30
2018-10-07T00:55:26.914Z,63.00
2018-10-07T00:57:55.595Z,65.40
2018-10-07T01:00:24.271Z,64.80
2018-10-07T01:02:53.166Z,65.40
2018-10-07T01:05:21.741Z,66.00
2018-10-07T01:07:50.450Z,66.60
2018-10-07T01:10:18.818Z,66.40
2018-10-07T01:12:47.242Z,64.10
2018-10-07T01:15:15.631Z,49.10
2018-10-07T01:17:44.988Z,65.10
2018-10-07T01:20:13.711Z,67.70
2018-10-07T01:25:10.923Z,73.10
2018-10-07T01:27:39.818Z,65.60
2018-10-07T01:30:08.226Z,78.90
2018-10-07T01:32:36.977Z,75.90
2018-10-07T01:35:05.431Z,75.00
2018-10-07T01:37:34.502Z,74.80
2018-10-07T01:40:02.892Z,71.90
2018-10-07T01:42:31.794Z,70.90
2018-10-07T01:45:00.579Z,70.90
2018-10-07T01:47:29.863Z,68.50
2018-10-07T01:49:58.230Z,69.50
2018-10-07T01:52:26.606Z,69.30
2018-10-07T01:54:55.239Z,70.80
2018-10-07T01:57:23.692Z,68.60
2018-10-07T01:59:52.343Z,68.90
2018-10-07T02:02:20.726Z,69.60
2018-10-07T02:04:49.195Z,67.60
2018-10-07T02:07:17.600Z,63.60
2018-10-07T02:09:46.020Z,63.00
2018-10-07T02:12:14.395Z,62.20
2018-10-07T02:14:42.991Z,61.10
2018-10-07T02:17:11.764Z,61.80
2018-10-07T02:19:40.411Z,59.20
2018-10-07T02:22:09.310Z,56.90
2018-10-07T02:24:37.906Z,55.50
2018-10-07T02:27:06.591Z,56.50
2018-10-07T02:29:34.997Z,55.00
2018-10-07T02:32:03.383Z,54.10
2018-10-07T02:34:31.751Z,56.60
2018-10-07T02:37:00.447Z,58.70
2018-10-07T02:39:28.882Z,58.30
2018-10-07T02:41:57.250Z,59.80
2018-10-07T02:44:26.311Z,54.50
2018-10-07T02:46:54.710Z,55.10
2018-10-07T02:49:23.110Z,54.00
2018-10-07T02:51:52.151Z,54.80
2018-10-07T02:54:20.602Z,55.20
2018-10-07T02:56:48.967Z,55.70
2018-10-07T02:59:18.118Z,54.50
2018-10-07T03:01:47.094Z,55.50
2018-10-07T03:04:15.742Z,51.60
2018-10-07T03:06:44.119Z,50.40
2018-10-07T03:09:13.065Z,48.90
2018-10-07T03:11:41.422Z,46.20
2018-10-07T03:14:10.128Z,46.00
2018-10-07T03:16:39.203Z,45.50
2018-10-07T03:19:08.410Z,43.90
2018-10-07T03:21:37.389Z,45.90
2018-10-07T03:24:05.751Z,47.50
2018-10-07T03:26:34.443Z,46.60
2018-10-07T03:29:02.823Z,48.00
2018-10-07T03:31:31.423Z,48.90
2018-10-07T03:33:59.921Z,51.10
2018-10-07T03:36:28.598Z,50.40
2018-10-07T03:38:57.042Z,49.30
2018-10-07T03:41:25.499Z,50.40
2018-10-07T03:43:53.814Z,49.60
2018-10-07T03:46:22.435Z,47.40
2018-10-07T03:48:51.426Z,48.40
2018-10-07T03:51:20.130Z,55.20
2018-10-07T03:53:48.494Z,57.50
2018-10-07T03:56:17.147Z,56.40
2018-10-07T03:58:45.576Z,54.60
2018-10-07T04:01:14.018Z,56.90
2018-10-07T04:03:42.902Z,55.90
2018-10-07T04:06:11.298Z,57.20
2018-10-07T04:08:39.967Z,55.50
2018-10-07T04:11:08.463Z,54.30
2018-10-07T04:13:37.034Z,54.70
2018-10-07T04:16:05.742Z,53.80
2018-10-07T04:18:34.407Z,54.10
2018-10-07T04:21:03.079Z,52.90
2018-10-07T04:23:31.458Z,52.00
2018-10-07T04:26:00.086Z,52.70
2018-10-07T04:28:28.562Z,53.90
2018-10-07T04:30:56.926Z,54.30
2018-10-07T04:33:25.295Z,54.90
2018-10-07T04:35:53.991Z,57.00
2018-10-07T04:38:22.867Z,59.20
2018-10-07T04:40:52.163Z,59.20
2018-10-07T04:43:20.623Z,66.30
2018-10-07T04:45:49.301Z,66.70
2018-10-07T04:48:17.939Z,68.80
2018-10-07T04:50:46.387Z,68.50
2018-10-07T04:53:14.777Z,68.50
2018-10-07T04:55:43.498Z,68.40
2018-10-07T04:58:12.443Z,67.40
2018-10-07T05:00:41.050Z,65.30
2018-10-07T05:03:09.446Z,64.10
2018-10-07T05:05:38.298Z,63.80
2018-10-07T05:08:07.515Z,64.10
2018-10-07T05:10:44.815Z,71.20
2018-10-07T05:13:16.006Z,72.70
2018-10-07T05:15:45.419Z,75.70
2018-10-07T05:18:13.935Z,79.30
2018-10-07T05:20:42.343Z,79.00
2018-10-07T05:23:11.053Z,80.40
2018-10-07T05:25:39.718Z,86.90
2018-10-07T05:28:08.458Z,83.30
2018-10-07T05:30:37.135Z,87.90
2018-10-07T05:33:05.790Z,92.40
2018-10-07T05:35:34.146Z,93.90
2018-10-07T05:38:03.091Z,92.90
2018-10-07T05:40:31.727Z,94.50
2018-10-07T05:43:00.342Z,93.20
2018-10-07T05:45:29.145Z,92.80
2018-10-07T05:47:57.567Z,91.90
2018-10-07T05:50:25.926Z,91.80
2018-10-07T05:52:55.011Z,91.00
2018-10-07T05:55:23.654Z,90.40
2018-10-07T05:57:55.931Z,90.20
2018-10-07T06:00:24.531Z,90.00
2018-10-07T06:02:54.683Z,90.00
2018-10-07T06:05:23.184Z,88.40
2018-10-07T06:07:52.336Z,87.10
2018-10-07T06:10:20.738Z,86.00
2018-10-07T06:12:49.176Z,81.80
2018-10-07T06:15:26.019Z,79.30
2018-10-07T06:17:54.426Z,74.40
2018-10-07T06:20:22.838Z,75.10
2018-10-07T06:22:51.428Z,72.00
2018-10-07T06:25:20.019Z,66.60
2018-10-07T06:27:48.473Z,56.70
2018-10-07T06:30:17.208Z,59.00
2018-10-07T06:32:46.283Z,60.10
2018-10-07T06:35:14.755Z,59.30
2018-10-07T06:37:43.188Z,52.70
2018-10-07T06:40:11.938Z,63.20
2018-10-07T06:42:40.914Z,62.90
2018-10-07T06:45:09.510Z,68.30
2018-10-07T06:47:37.934Z,68.60
2018-10-07T06:50:06.763Z,68.60
2018-10-07T06:52:35.976Z,74.00
2018-10-07T06:55:04.871Z,76.50
2018-10-07T06:57:33.307Z,71.10
2018-10-07T07:00:01.712Z,80.60
2018-10-07T07:04:58.459Z,65.50
2018-10-07T07:12:23.610Z,63.40
2018-10-07T07:14:52.679Z,38.40
2018-10-07T07:17:22.799Z,18.50
2018-10-07T07:19:51.532Z,3.90
2018-10-07T07:22:19.911Z,1.00
2018-10-07T07:24:48.646Z,1.00
2018-10-07T07:27:17.363Z,1.00
2018-10-07T07:29:45.863Z,1.00
2018-10-07T07:32:14.306Z,1.00
2018-10-07T07:34:42.976Z,1.00
2018-10-07T07:37:11.475Z,99.90
2018-10-07T07:39:40.200Z,99.90
2018-10-07T07:42:09.109Z,94.80
2018-10-07T07:44:37.531Z,1.00
2018-10-07T07:47:06.334Z,1.00
2018-10-07T07:49:35.022Z,99.90
2018-10-07T07:52:03.422Z,99.90
2018-10-07T07:54:31.815Z,99.90
2018-10-07T07:59:28.817Z,99.90
2018-10-07T08:01:58.541Z,99.90
2018-10-07T08:04:28.238Z,1.00
2018-10-07T08:06:57.791Z,1.00
2018-10-07T08:09:26.695Z,99.90
2018-10-07T08:11:55.454Z,1.00
2018-10-07T08:14:24.183Z,1.00
2018-10-07T08:16:53.094Z,99.90
2018-10-07T08:19:21.700Z,1.00
2018-10-07T08:21:50.078Z,99.90
2018-10-07T08:24:19.174Z,1.00
2018-10-07T08:26:48.352Z,1.00
2018-10-07T08:29:17.343Z,99.90
2018-10-07T08:31:46.554Z,99.90
2018-10-07T08:34:15.287Z,99.90
2018-10-07T08:36:45.578Z,1.00
2018-10-07T08:39:14.546Z,1.00
2018-10-07T08:41:43.343Z,99.90
2018-10-07T08:44:12.978Z,99.90
2018-10-07T08:46:41.614Z,99.90
2018-10-07T08:49:11.500Z,99.90
2018-10-07T08:51:41.058Z,99.90
2018-10-07T08:54:10.648Z,99.90
2018-10-07T08:56:39.769Z,97.90
2018-10-07T08:59:08.181Z,50.80
2018-10-07T09:01:36.551Z,1.00
2018-10-07T09:04:05.853Z,1.00
2018-10-07T09:06:35.947Z,1.00
2018-10-07T09:09:07.086Z,1.00
2018-10-07T09:11:37.118Z,1.00
2018-10-07T09:14:05.935Z,1.00
2018-10-07T09:16:34.330Z,1.00
2018-10-07T09:19:02.710Z,1.00
2018-10-07T09:21:31.415Z,1.00
2018-10-07T09:23:59.831Z,1.00
2018-10-07T09:26:28.819Z,1.00
2018-10-07T09:28:57.571Z,1.00
2018-10-07T09:31:26.587Z,1.00
2018-10-07T09:33:54.962Z,1.00
2018-10-07T09:36:23.603Z,1.00
2018-10-07T09:38:51.979Z,1.00
2018-10-07T09:41:20.379Z,1.00
2018-10-07T09:43:48.787Z,1.00
2018-10-07T09:46:17.235Z,1.00
2018-10-07T09:48:45.999Z,1.00
2018-10-07T09:51:14.430Z,1.00
2018-10-07T09:53:42.866Z,1.00
2018-10-07T09:56:11.264Z,1.00
2018-10-07T09:58:40.464Z,1.00
2018-10-07T10:01:09.473Z,1.00
2018-10-07T10:03:38.174Z,1.00
2018-10-07T10:06:06.833Z,1.00
2018-10-07T10:08:35.227Z,1.00
2018-10-07T10:11:04.235Z,1.00
2018-10-07T10:13:32.851Z,1.00
2018-10-07T10:16:01.855Z,1.00
2018-10-07T10:18:32.750Z,1.00
2018-10-07T10:21:04.771Z,1.00
2018-10-07T10:23:47.703Z,1.00
2018-10-07T10:26:29.259Z,1.00
2018-10-07T10:29:09.314Z,1.00
2018-10-07T10:32:21.603Z,1.00
2018-10-07T10:35:02.870Z,1.00
2018-10-07T10:37:39.743Z,1.00
2018-10-07T10:40:15.215Z,1.00
2018-10-07T10:42:52.827Z,99.90
2018-10-07T10:47:29.234Z,99.90
2018-10-07T10:50:26.651Z,99.90
2018-10-07T10:53:08.929Z,99.90
2018-10-07T10:55:46.474Z,99.90
2018-10-07T10:58:25.605Z,99.90
2018-10-07T11:00:57.017Z,99.90
2018-10-07T11:03:34.771Z,99.90
2018-10-07T11:06:11.750Z,99.90
2018-10-07T11:08:49.353Z,99.90
2018-10-07T11:11:27.356Z,99.90
2018-10-07T11:14:34.873Z,99.90
2018-10-07T11:17:08.646Z,99.90
2018-10-07T11:19:42.867Z,99.90
2018-10-07T11:24:25.364Z,99.90
2018-10-07T11:27:04.027Z,99.90
2018-10-07T11:30:40.499Z,99.90
2018-10-07T11:33:42.633Z,99.90
2018-10-07T11:36:20.045Z,99.90
2018-10-07T11:39:08.618Z,99.90
2018-10-07T11:41:44.478Z,99.90
2018-10-07T11:44:25.855Z,99.90
2018-10-07T11:47:02.166Z,99.90
2018-10-07T11:49:40.351Z,99.90
2018-10-07T11:52:19.992Z,99.90
2018-10-07T11:54:56.323Z,99.90
2018-10-07T11:57:25.292Z,99.90
2018-10-07T11:59:53.645Z,99.90
2018-10-07T12:02:22.097Z,99.90
2018-10-07T12:04:50.706Z,99.90
2018-10-07T12:07:19.637Z,99.90
2018-10-07T12:09:48.042Z,99.90
2018-10-07T12:12:17.451Z,99.90
2018-10-07T12:14:46.367Z,99.90
2018-10-07T12:17:14.775Z,99.90
2018-10-07T12:19:43.595Z,99.90
2018-10-07T12:22:12.750Z,99.90
2018-10-07T12:24:41.151Z,99.90
2018-10-07T12:27:10.447Z,99.90
2018-10-07T12:29:39.115Z,99.90
2018-10-07T12:32:08.143Z,99.90
2018-10-07T12:34:36.791Z,99.90
2018-10-07T12:37:06.188Z,99.90
2018-10-07T12:39:34.999Z,99.90
2018-10-07T12:42:04.078Z,99.90
2018-10-07T12:44:32.584Z,99.90
2018-10-07T12:47:01.251Z,99.90
2018-10-07T12:49:29.618Z,99.90
2018-10-07T12:51:57.967Z,99.90
2018-10-07T12:54:26.365Z,99.90
2018-10-07T12:56:54.715Z,99.90
2018-10-07T12:59:23.419Z,99.90
2018-10-07T13:01:52.055Z,99.90
2018-10-07T13:04:20.759Z,99.90
2018-10-07T13:06:49.138Z,99.90
2018-10-07T13:09:17.834Z,99.90
2018-10-07T13:11:46.209Z,99.90
2018-10-07T13:14:14.595Z,99.90
2018-10-07T13:16:42.943Z,99.90
2018-10-07T13:19:11.383Z,99.90
2018-10-07T13:21:40.490Z,99.90
2018-10-07T13:24:08.940Z,99.90
2018-10-07T13:26:37.330Z,99.90
2018-10-07T13:29:05.986Z,99.90
2018-10-07T13:31:35.228Z,99.90
2018-10-07T13:34:03.607Z,99.90
2018-10-07T13:36:32.326Z,99.90
2018-10-07T13:39:01.087Z,99.90
2018-10-07T13:41:29.454Z,99.90
2018-10-07T13:43:58.654Z,99.90
2018-10-07T13:46:27.549Z,99.90
2018-10-07T13:48:55.934Z,99.90
2018-10-07T13:51:24.445Z,99.90
2018-10-07T13:53:53.149Z,99.90
2018-10-07T13:56:21.775Z,99.90
2018-10-07T13:58:50.159Z,99.90
2018-10-07T14:01:18.543Z,99.90
2018-10-07T14:03:47.332Z,99.90
2018-10-07T14:06:15.684Z,99.90
2018-10-07T14:08:44.066Z,99.90
2018-10-07T14:11:12.762Z,99.90
2018-10-07T14:13:41.378Z,99.90
2018-10-07T14:16:10.263Z,99.90
2018-10-07T14:18:39.055Z,99.90
2018-10-07T14:21:07.654Z,99.90
2018-10-07T14:23:36.286Z,99.90
2018-10-07T14:26:04.942Z,99.90
2018-10-07T14:28:33.325Z,99.90
2018-10-07T14:31:01.938Z,99.90
2018-10-07T14:33:30.583Z,99.90
2018-10-07T14:35:59.012Z,99.90
2018-10-07T14:38:27.395Z,99.90
2018-10-07T14:40:55.802Z,99.90
2018-10-07T14:43:24.463Z,99.90
2018-10-07T14:45:53.154Z,99.90
2018-10-07T14:48:21.514Z,99.90
2018-10-07T14:50:51.250Z,99.90
2018-10-07T14:53:20.046Z,99.90
2018-10-07T14:55:48.367Z,99.90
2018-10-07T14:58:16.778Z,99.90
2018-10-07T15:00:46.011Z,99.90
2018-10-07T15:03:14.772Z,99.90
2018-10-07T15:05:43.611Z,99.90
2018-10-07T15:08:12.214Z,99.90
2018-10-07T15:10:40.956Z,99.90
2018-10-07T15:13:10.071Z,99.90
2018-10-07T15:15:38.814Z,99.90
2018-10-07T15:18:07.491Z,99.90
2018-10-07T15:20:36.315Z,99.90
2018-10-07T15:23:04.699Z,99.90
2018-10-07T15:25:33.283Z,99.90
2018-10-07T15:28:01.718Z,99.90
2018-10-07T15:30:30.707Z,99.90
2018-10-07T15:32:59.528Z,99.90
2018-10-07T15:35:28.345Z,99.90
2018-10-07T15:37:56.689Z,99.90
2018-10-07T15:40:25.063Z,99.90
2018-10-07T15:42:53.719Z,99.90
2018-10-07T15:45:22.962Z,99.90
2018-10-07T15:47:51.829Z,99.90
2018-10-07T15:50:20.512Z,99.90
2018-10-07T15:52:50.076Z,99.90
2018-10-07T15:55:18.731Z,99.90
2018-10-07T15:57:48.199Z,99.90
2018-10-07T16:00:16.679Z,99.90
2018-10-07T16:02:45.183Z,99.90
2018-10-07T16:05:14.547Z,99.90
2018-10-07T16:07:43.415Z,99.90
2018-10-07T16:10:12.139Z,99.90
2018-10-07T16:12:40.534Z,99.90
2018-10-07T16:15:09.122Z,99.90
2018-10-07T16:17:37.767Z,99.90
2018-10-07T16:20:06.202Z,99.90
2018-10-07T16:22:34.586Z,99.90
2018-10-07T16:25:03.027Z,99.90
2018-10-07T16:27:31.436Z,99.90
2018-10-07T16:30:00.127Z,99.90
2018-10-07T16:32:28.864Z,99.90
2018-10-07T16:34:57.591Z,99.90
2018-10-07T16:37:26.275Z,99.90
2018-10-07T16:39:55.062Z,99.90
2018-10-07T16:42:23.438Z,99.90
2018-10-07T16:44:51.787Z,99.90
2018-10-07T16:47:20.187Z,99.90
2018-10-07T16:49:49.671Z,99.90
2018-10-07T16:52:18.303Z,99.90
2018-10-07T16:54:47.229Z,99.90
2018-10-07T16:57:15.587Z,1.00
2018-10-07T16:59:44.236Z,1.00
2018-10-07T17:02:12.623Z,1.00
2018-10-07T17:04:41.003Z,1.00
2018-10-07T17:07:09.384Z,1.00
2018-10-07T17:09:38.818Z,1.00
2018-10-07T17:12:07.890Z,1.00
2018-10-07T17:14:36.336Z,1.00
2018-10-07T17:17:05.968Z,1.00
2018-10-07T17:19:34.356Z,1.00
2018-10-07T17:22:02.730Z,1.00
2018-10-07T17:24:31.357Z,1.00
2018-10-07T17:27:00.020Z,1.00
2018-10-07T17:29:28.359Z,1.00
2018-10-07T17:31:56.800Z,1.00
2018-10-07T17:34:25.187Z,1.00
2018-10-07T17:36:53.623Z,1.00
2018-10-07T17:39:22.011Z,1.00
2018-10-07T17:41:50.387Z,1.00
2018-10-07T17:44:19.267Z,1.00
2018-10-07T17:46:47.654Z,1.00
2018-10-07T17:49:16.394Z,1.00
2018-10-07T17:51:44.831Z,1.00
2018-10-07T17:54:13.427Z,1.00
2018-10-07T17:56:42.414Z,62.40
2018-10-07T17:59:11.416Z,99.90
2018-10-07T18:01:40.031Z,99.90
2018-10-07T18:04:08.370Z,99.90
2018-10-07T18:06:36.736Z,99.90
2018-10-07T18:09:07.530Z,1.00
2018-10-07T18:11:36.087Z,1.00
2018-10-07T18:14:06.371Z,1.00
2018-10-07T18:16:35.165Z,1.00
2018-10-07T18:19:03.801Z,1.00
2018-10-07T18:21:32.521Z,1.00
2018-10-07T18:24:00.895Z,1.00
2018-10-07T18:26:29.603Z,1.00
2018-10-07T18:28:59.282Z,1.00
2018-10-07T18:31:28.372Z,76.00
2018-10-07T18:33:57.006Z,99.90
2018-10-07T18:36:25.496Z,99.90
2018-10-07T18:38:54.991Z,1.00
2018-10-07T18:41:23.895Z,1.00
2018-10-07T18:43:52.600Z,1.00
2018-10-07T18:46:20.989Z,99.90
2018-10-07T18:48:49.482Z,1.00
2018-10-07T18:51:18.907Z,74.70
2018-10-07T18:53:47.827Z,99.90
2018-10-07T18:56:16.264Z,1.00
2018-10-07T18:58:45.015Z,1.00
2018-10-07T19:01:13.671Z,1.00
2018-10-07T19:03:42.662Z,1.00
2018-10-07T19:06:11.052Z,99.90
2018-10-07T19:08:40.235Z,99.90
2018-10-07T19:11:08.614Z,29.70
2018-10-07T19:13:37.319Z,1.00
2018-10-07T19:16:05.991Z,99.90
2018-10-07T19:18:35.592Z,99.90
2018-10-07T19:21:03.995Z,5.70
2018-10-07T19:23:33.091Z,99.90
2018-10-07T19:26:01.477Z,16.20
2018-10-07T19:28:30.183Z,99.90
2018-10-07T19:30:58.882Z,1.00
2018-10-07T19:33:27.617Z,1.00
2018-10-07T19:35:56.016Z,11.70
2018-10-07T19:38:24.679Z,99.90
2018-10-07T19:40:53.046Z,1.00
2018-10-07T19:43:21.938Z,1.00
2018-10-07T19:45:50.566Z,1.00
2018-10-07T19:48:18.934Z,1.00
2018-10-07T19:50:48.327Z,1.00
2018-10-07T19:53:16.682Z,99.90
2018-10-07T19:55:45.703Z,1.00
2018-10-07T19:58:14.774Z,99.90
2018-10-07T20:00:43.134Z,81.50
2018-10-07T20:03:12.063Z,37.60
2018-10-07T20:05:40.822Z,15.70
2018-10-07T20:08:09.539Z,1.00
2018-10-07T20:10:37.906Z,1.00
2018-10-07T20:13:07.483Z,99.90
2018-10-07T20:15:36.899Z,99.90
2018-10-07T20:18:06.063Z,99.90
2018-10-07T20:20:34.406Z,99.90
2018-10-07T20:23:03.498Z,99.90
2018-10-07T20:25:31.877Z,99.90
2018-10-07T20:28:00.267Z,99.90
2018-10-07T20:30:29.271Z,99.90
2018-10-07T20:32:58.238Z,99.90
2018-10-07T20:35:27.167Z,99.90
2018-10-07T20:37:55.534Z,99.90
2018-10-07T20:40:23.911Z,99.90
2018-10-07T20:42:52.282Z,99.90
2018-10-07T20:45:21.948Z,99.90
2018-10-07T20:47:50.326Z,99.90
2018-10-07T20:50:19.026Z,99.90
2018-10-07T20:52:47.591Z,20.20
2018-10-07T20:55:15.983Z,91.60
2018-10-07T20:57:44.909Z,99.90
2018-10-07T21:00:14.004Z,99.90
2018-10-07T21:02:42.401Z,99.90
2018-10-07T21:05:10.752Z,99.90
2018-10-07T21:07:39.127Z,99.90
2018-10-07T21:10:07.727Z,99.90
2018-10-07T21:12:36.089Z,99.90
2018-10-07T21:15:04.943Z,99.90
2018-10-07T21:17:33.631Z,99.90
2018-10-07T21:20:02.248Z,99.90
2018-10-07T21:22:31.767Z,1.00
2018-10-07T21:25:00.194Z,1.00
2018-10-07T21:27:29.153Z,1.00
2018-10-07T21:29:57.502Z,1.00
2018-10-07T21:32:26.147Z,1.00
2018-10-07T21:34:55.039Z,1.00
2018-10-07T21:37:23.492Z,1.00
2018-10-07T21:39:52.131Z,1.00
2018-10-07T21:42:21.094Z,1.00
2018-10-07T21:44:49.822Z,1.00
2018-10-07T21:47:18.193Z,1.00
2018-10-07T21:49:46.914Z,1.00
2018-10-07T21:52:15.285Z,1.00
2018-10-07T21:54:43.631Z,1.00
2018-10-07T21:57:12.699Z,1.00
2018-10-07T21:59:41.162Z,1.00
2018-10-07T22:02:09.862Z,1.00
2018-10-07T22:04:38.210Z,1.00
2018-10-07T22:07:07.455Z,1.00
2018-10-07T22:09:36.250Z,1.00
2018-10-07T22:12:04.638Z,1.00
2018-10-07T22:14:33.962Z,1.00
2018-10-07T22:17:02.340Z,1.00
2018-10-07T22:19:31.275Z,1.00
2018-10-07T22:21:59.898Z,1.00
2018-10-07T22:24:28.291Z,1.00
2018-10-07T22:26:56.698Z,1.00
2018-10-07T22:29:25.070Z,1.00
2018-10-07T22:31:53.434Z,1.00
2018-10-07T22:34:21.815Z,1.00
2018-10-07T22:36:50.483Z,1.00
2018-10-07T22:39:19.203Z,1.00
2018-10-07T22:41:48.287Z,1.00
2018-10-07T22:44:16.666Z,1.00
2018-10-07T22:46:45.275Z,1.00
2018-10-07T22:49:13.862Z,1.00
2018-10-07T22:51:42.645Z,1.00
2018-10-07T22:54:11.023Z,1.00
2018-10-07T22:56:39.682Z,1.00
2018-10-07T22:59:08.035Z,1.00
2018-10-07T23:01:36.735Z,1.00
2018-10-07T23:04:05.474Z,1.00
2018-10-07T23:06:33.819Z,1.00
2018-10-07T23:09:02.835Z,1.00
2018-10-07T23:11:31.175Z,1.00
2018-10-07T23:14:00.137Z,1.00
2018-10-07T23:16:28.788Z,1.00
2018-10-07T23:18:57.475Z,1.00
2018-10-07T23:21:26.094Z,1.00
2018-10-07T23:23:55.238Z,1.00
2018-10-07T23:26:23.643Z,1.00
2018-10-07T23:28:52.526Z,1.00
2018-10-07T23:31:21.130Z,3.70
2018-10-07T23:33:49.490Z,3.10
2018-10-07T23:36:18.190Z,2.40
2018-10-07T23:38:46.718Z,12.40
2018-10-07T23:41:16.127Z,9.60
2018-10-07T23:43:44.670Z,11.40
2018-10-07T23:46:13.096Z,11.80
2018-10-07T23:48:42.438Z,14.00
2018-10-07T23:51:10.883Z,15.50
2018-10-07T23:53:39.559Z,11.40
2018-10-07T23:56:07.953Z,15.20
2018-10-07T23:58:36.599Z,12.80
